Date,TemperatureHighF,TemperatureAvgF,TemperatureLowF,DewpointHighF,DewpointAvgF,DewpointLowF,HumidityHigh,HumidityAvg,HumidityLow,PressureMaxIn,PressureMinIn,WindSpeedMaxMPH,WindSpeedAvgMPH,GustSpeedMaxMPH,PrecipitationSumIn
2013-7-1,83,75,68,74,70,66,96,86,71,29.93,29.81,3,1,7,0.11
2013-7-2,78,74,72,74,72,70,95,92,84,30.12,29.95,4,2,9,0.91
2013-7-3,80,76,73,75,73,71,95,91,84,30.20,30.12,2,0,6,0.21
2013-7-4,88,77,71,76,73,69,95,88,62,30.23,30.12,4,1,9,1.73
2013-7-5,83,77,74,78,74,71,95,90,78,30.23,30.16,6,1,7,0.17
2013-7-6,85,77,72,77,73,71,95,88,69,30.22,30.09,4,1,6,0.19
2013-7-7,86,79,74,78,74,72,94,87,72,30.15,30.04,4,2,6,0.01
2013-7-8,88,80,73,77,74,72,95,83,61,30.17,30.08,3,1,0,0.04
2013-7-9,92,81,73,77,74,71,94,82,57,30.14,30.02,4,1,0,0.26
2013-7-10,88,78,72,78,73,70,95,87,67,30.09,29.92,4,2,7,0.10
2013-7-11,78,75,70,75,72,68,95,93,90,29.95,29.85,3,1,0,0.16
2013-7-12,83,75,71,74,71,67,96,87,69,30.00,29.86,4,1,7,0.01
2013-7-13,81,74,70,74,70,66,94,87,77,30.10,30.00,2,1,6,0.10
2013-7-14,88,78,73,77,73,71,96,86,62,30.25,30.08,3,1,8,0.34
2013-7-15,91,80,72,76,72,70,95,79,54,30.31,30.22,1,0,0,0.00
2013-7-16,94,81,71,77,73,69,95,77,47,30.29,30.18,4,1,6,0.00
2013-7-17,93,79,72,80,73,68,94,83,59,30.22,30.11,3,0,5,0.25
2013-7-18,93,81,72,79,74,70,96,83,51,30.15,30.03,6,1,8,0.00
2013-7-19,91,82,76,78,76,74,93,81,62,30.08,29.96,4,1,12,0.00
2013-7-20,86,78,74,78,74,72,95,88,75,30.01,29.90,4,2,0,0.17
2013-7-21,89,77,72,79,73,71,96,89,66,29.99,29.89,5,1,7,0.10
2013-7-22,87,78,72,78,73,71,96,87,69,29.97,29.82,4,2,9,0.00
2013-7-23,90,80,73,75,72,69,94,77,52,29.83,29.74,5,3,10,0.00
2013-7-24,92,81,72,76,73,69,94,77,54,29.84,29.71,4,1,7,0.29
2013-7-25,86,77,68,72,69,66,95,79,59,30.00,29.80,2,0,7,0.02
2013-7-26,87,78,71,72,70,68,89,76,58,30.09,29.99,2,0,0,0.00
2013-7-27,77,76,71,73,72,69,93,88,79,30.01,29.95,6,1,8,0.84
2013-7-28,86,76,71,75,71,69,95,86,63,29.98,29.90,4,2,0,0.06
2013-7-29,88,77,68,72,69,65,95,77,50,30.14,29.99,1,0,0,0.01
2013-7-30,84,76,69,71,67,62,86,73,56,30.21,30.11,4,0,4,0.00
2013-7-31,81,75,71,74,71,69,95,87,76,30.14,29.98,2,0,5,0.72